createdAt,value
2022-08-09T00:00:23.871Z,76.03
2022-08-09T00:01:15.576Z,75.93
2022-08-09T00:02:03.131Z,76.13
2022-08-09T00:02:53.075Z,76.03
2022-08-09T00:04:08.534Z,76.13
2022-08-09T00:04:35.540Z,76.03
2022-08-09T00:06:17.446Z,75.86
2022-08-09T00:06:19.737Z,75.96
2022-08-09T00:07:04.016Z,76.06
2022-08-09T00:07:54.431Z,76.27
2022-08-09T00:08:43.008Z,76.61
2022-08-09T00:09:32.985Z,76.81
2022-08-09T00:10:24.586Z,77.12
2022-08-09T00:11:25.055Z,76.91
2022-08-09T00:12:04.983Z,77.42
2022-08-09T00:12:53.353Z,77.32
2022-08-09T00:13:42.964Z,77.22
2022-08-09T00:14:36.308Z,77.52
2022-08-09T00:15:26.538Z,77.62
2022-08-09T00:16:13.905Z,77.52
2022-08-09T00:17:02.903Z,77.62
2022-08-09T00:18:05.660Z,77.32
2022-08-09T00:18:43.895Z,77.62
2022-08-09T00:19:34.135Z,77.83
2022-08-09T00:20:22.864Z,77.83
2022-08-09T00:21:13.351Z,77.62
2022-08-09T00:22:03.624Z,77.52
2022-08-09T00:22:52.844Z,77.42
2022-08-09T00:23:55.055Z,77.83
2022-08-09T00:24:33.823Z,77.93
2022-08-09T00:25:23.117Z,78.03
2022-08-09T00:26:13.803Z,77.12
2022-08-09T00:27:02.814Z,76.81
2022-08-09T00:27:52.775Z,76.91
2022-08-09T00:28:52.864Z,76.40
2022-08-09T00:30:10.289Z,76.51
2022-08-09T00:30:26.123Z,76.81
2022-08-09T00:31:57.354Z,76.91
2022-08-09T00:32:03.764Z,76.71
2022-08-09T00:32:52.733Z,76.71
2022-08-09T00:33:49.131Z,76.91
2022-08-09T00:34:33.740Z,77.32
2022-08-09T00:35:22.695Z,77.62
2022-08-09T00:36:12.682Z,77.25
2022-08-09T00:37:02.693Z,77.15
2022-08-09T00:37:52.671Z,77.36
2022-08-09T00:38:42.670Z,77.25
2022-08-09T00:40:12.571Z,77.36
2022-08-09T00:40:30.221Z,77.25
2022-08-09T00:44:08.089Z,77.56
2022-08-09T00:44:10.447Z,77.15
2022-08-09T00:44:11.447Z,76.75
2022-08-09T00:44:25.576Z,77.15
2022-08-09T00:44:33.955Z,77.15
2022-08-09T00:45:22.592Z,77.15
2022-08-09T00:46:28.459Z,77.36
2022-08-09T00:47:05.404Z,77.36
2022-08-09T00:47:52.580Z,77.15
2022-08-09T00:48:42.561Z,77.25
2022-08-09T00:49:33.543Z,77.36
2022-08-09T00:50:22.542Z,77.59
2022-08-09T00:51:13.023Z,77.90
2022-08-09T00:52:05.472Z,78.20
2022-08-09T00:52:52.515Z,78.71
2022-08-09T00:53:42.510Z,78.30
2022-08-09T00:54:35.862Z,78.41
2022-08-09T00:56:03.326Z,78.61
2022-08-09T00:56:13.471Z,78.10
2022-08-09T00:57:02.464Z,77.90
2022-08-09T00:57:53.441Z,78.30
2022-08-09T00:58:43.442Z,78.00
2022-08-09T00:59:41.378Z,77.97
2022-08-09T01:00:23.536Z,77.86
2022-08-09T01:01:16.185Z,78.37
2022-08-09T01:02:02.426Z,78.37
2022-08-09T01:02:52.417Z,78.41
2022-08-09T01:03:46.199Z,78.20
2022-08-09T01:04:32.382Z,78.41
2022-08-09T01:05:22.494Z,78.91
2022-08-09T01:06:17.622Z,79.32
2022-08-09T01:07:03.680Z,79.02
2022-08-09T01:08:00.538Z,79.02
2022-08-09T01:08:49.392Z,79.12
2022-08-09T01:09:35.860Z,78.61
2022-08-09T01:10:22.318Z,78.55
2022-08-09T01:11:15.279Z,79.25
2022-08-09T01:12:02.309Z,79.97
2022-08-09T01:12:52.686Z,79.77
2022-08-09T01:13:58.962Z,79.86
2022-08-09T01:14:33.251Z,79.46
2022-08-09T01:15:22.260Z,79.66
2022-08-09T01:16:12.957Z,79.36
2022-08-09T01:17:02.244Z,79.46
2022-08-09T01:17:52.237Z,79.25
2022-08-09T01:18:47.688Z,78.44
2022-08-09T01:19:42.759Z,78.24
2022-08-09T01:20:23.490Z,78.14
2022-08-09T01:21:12.180Z,78.24
2022-08-09T01:22:02.188Z,78.34
2022-08-09T01:22:54.800Z,78.34
2022-08-09T01:24:03.012Z,78.64
2022-08-09T01:24:33.179Z,78.55
2022-08-09T01:25:22.214Z,78.55
2022-08-09T01:26:12.141Z,78.44
2022-08-09T01:27:02.160Z,78.55
2022-08-09T01:27:52.220Z,78.85
2022-08-09T01:28:42.100Z,78.85
2022-08-09T01:29:41.249Z,78.75
2022-08-09T01:30:28.731Z,79.05
2022-08-09T01:31:23.455Z,79.29
2022-08-09T01:32:30.834Z,79.39
2022-08-09T01:32:53.050Z,79.50
2022-08-09T01:33:42.058Z,79.84
2022-08-09T01:34:32.047Z,80.04
2022-08-09T01:35:37.877Z,80.15
2022-08-09T01:36:13.617Z,80.65
2022-08-09T01:37:02.009Z,80.85
2022-08-09T01:38:08.105Z,80.55
2022-08-09T01:38:44.274Z,80.65
2022-08-09T01:39:32.007Z,80.45
2022-08-09T01:40:22.901Z,80.65
2022-08-09T01:41:12.969Z,80.96
2022-08-09T01:42:07.992Z,80.90
2022-08-09T01:42:52.938Z,80.99
2022-08-09T01:43:51.515Z,81.71
2022-08-09T01:44:32.917Z,81.51
2022-08-09T01:45:21.917Z,81.57
2022-08-09T01:46:11.919Z,81.46
2022-08-09T01:47:02.917Z,80.96
2022-08-09T01:47:51.888Z,80.55
2022-08-09T01:48:41.896Z,80.55
2022-08-09T01:49:39.014Z,80.45
2022-08-09T01:50:30.006Z,80.65
2022-08-09T01:51:12.869Z,80.85
2022-08-09T01:52:07.461Z,80.96
2022-08-09T01:52:52.828Z,80.65
2022-08-09T01:53:41.932Z,80.65
2022-08-09T01:54:32.956Z,80.65
2022-08-09T01:55:21.826Z,80.65
2022-08-09T01:56:11.815Z,80.76
2022-08-09T01:57:03.960Z,81.06
2022-08-09T01:57:52.989Z,80.85
2022-08-09T01:58:41.775Z,80.59
2022-08-09T01:59:32.460Z,80.79
2022-08-09T02:00:35.734Z,80.79
2022-08-09T02:01:18.404Z,81.20
2022-08-09T02:02:02.773Z,81.71
2022-08-09T02:02:51.753Z,81.51
2022-08-09T02:03:41.726Z,81.40
2022-08-09T02:04:31.701Z,82.32
2022-08-09T02:05:21.696Z,82.12
2022-08-09T02:06:12.683Z,81.71
2022-08-09T02:07:02.541Z,81.81
2022-08-09T02:08:38.949Z,81.60
2022-08-09T02:08:58.883Z,81.30
2022-08-09T02:09:41.970Z,81.20
2022-08-09T02:10:30.172Z,81.51
2022-08-09T02:11:16.758Z,82.12
2022-08-09T02:12:02.635Z,82.01
2022-08-09T02:12:51.623Z,81.40
2022-08-09T02:13:41.604Z,81.20
2022-08-09T02:14:31.595Z,80.90
2022-08-09T02:15:21.603Z,80.69
2022-08-09T02:16:12.572Z,80.49
2022-08-09T02:17:59.983Z,80.49
2022-08-09T02:18:01.271Z,80.79
2022-08-09T02:18:42.735Z,80.90
2022-08-09T02:19:38.812Z,81.10
2022-08-09T02:20:26.221Z,81.30
2022-08-09T02:21:11.527Z,80.99
2022-08-09T02:22:02.522Z,81.20
2022-08-09T02:22:51.494Z,81.40
2022-08-09T02:23:42.952Z,81.30
2022-08-09T02:24:31.475Z,81.40
2022-08-09T02:25:21.502Z,81.51
2022-08-09T02:26:25.055Z,81.71
2022-08-09T02:27:02.464Z,81.51
2022-08-09T02:27:58.246Z,81.40
2022-08-09T02:28:42.789Z,81.51
2022-08-09T02:29:31.434Z,81.71
2022-08-09T02:30:21.416Z,81.30
2022-08-09T02:31:11.402Z,80.99
2022-08-09T02:32:01.425Z,80.99
2022-08-09T02:32:51.425Z,81.13
2022-08-09T02:34:06.871Z,81.34
2022-08-09T02:34:40.475Z,81.74
2022-08-09T02:35:26.088Z,81.65
2022-08-09T02:36:12.364Z,81.79
2022-08-09T02:37:01.341Z,82.50
2022-08-09T02:37:51.362Z,82.80
2022-08-09T02:38:41.334Z,82.90
2022-08-09T02:39:33.991Z,82.29
2022-08-09T02:40:26.812Z,82.60
2022-08-09T02:41:11.302Z,82.90
2022-08-09T02:42:01.290Z,83.21
2022-08-09T02:42:51.399Z,83.42
2022-08-09T02:43:47.789Z,83.62
2022-08-09T02:44:32.272Z,83.42
2022-08-09T02:45:21.249Z,83.21
2022-08-09T02:46:12.233Z,83.01
2022-08-09T02:47:01.251Z,83.42
2022-08-09T02:47:58.911Z,83.51
2022-08-09T02:48:46.230Z,83.82
2022-08-09T02:49:38.348Z,83.21
2022-08-09T02:50:22.203Z,83.11
2022-08-09T02:51:11.181Z,82.40
2022-08-09T02:52:01.177Z,82.19
2022-08-09T02:52:55.111Z,82.19
2022-08-09T02:53:43.127Z,81.99
2022-08-09T02:54:32.143Z,82.40
2022-08-09T02:55:21.465Z,82.70
2022-08-09T02:56:11.132Z,83.11
2022-08-09T02:57:01.144Z,82.80
2022-08-09T02:58:00.358Z,82.80
2022-08-09T02:58:42.121Z,82.70
2022-08-09T02:59:36.589Z,83.01
2022-08-09T03:00:25.973Z,83.11
2022-08-09T03:01:15.157Z,82.90
2022-08-09T03:02:05.730Z,83.01
2022-08-09T03:03:00.274Z,83.01
2022-08-09T03:04:16.963Z,83.31
2022-08-09T03:04:32.041Z,83.21
2022-08-09T03:05:21.032Z,83.04
2022-08-09T03:06:11.011Z,83.15
2022-08-09T03:07:12.553Z,83.45
2022-08-09T03:07:55.032Z,83.56
2022-08-09T03:08:41.024Z,83.45
2022-08-09T03:09:33.581Z,83.45
2022-08-09T03:10:20.971Z,83.45
2022-08-09T03:11:10.951Z,83.04
2022-08-09T03:12:06.473Z,83.15
2022-08-09T03:12:52.729Z,83.76
2022-08-09T03:13:43.618Z,83.96
2022-08-09T03:14:32.041Z,83.96
2022-08-09T03:15:21.413Z,84.27
2022-08-09T03:16:10.953Z,83.96
2022-08-09T03:17:01.904Z,84.00
2022-08-09T03:17:54.010Z,83.80
2022-08-09T03:18:42.262Z,84.41
2022-08-09T03:19:58.371Z,84.41
2022-08-09T03:20:21.870Z,84.41
2022-08-09T03:21:10.880Z,84.41
2022-08-09T03:22:03.172Z,84.51
2022-08-09T03:22:56.931Z,84.11
2022-08-09T03:23:41.839Z,83.80
2022-08-09T03:24:42.379Z,83.80
2022-08-09T03:25:56.869Z,84.00
2022-08-09T03:26:11.820Z,84.20
2022-08-09T03:27:00.799Z,84.11
2022-08-09T03:27:50.790Z,84.20
2022-08-09T03:28:40.768Z,84.51
2022-08-09T03:29:30.749Z,84.82
2022-08-09T03:30:30.107Z,84.51
2022-08-09T03:31:22.518Z,84.41
2022-08-09T03:32:01.749Z,84.51
2022-08-09T03:32:50.760Z,84.41
2022-08-09T03:33:53.104Z,84.72
2022-08-09T03:34:31.708Z,84.51
2022-08-09T03:35:24.205Z,84.20
2022-08-09T03:36:12.760Z,83.90
2022-08-09T03:37:02.466Z,83.80
2022-08-09T03:37:55.754Z,83.90
2022-08-09T03:38:43.117Z,84.31
2022-08-09T03:39:38.099Z,84.61
2022-08-09T03:40:21.660Z,85.02
2022-08-09T03:41:11.767Z,84.72
2022-08-09T03:42:06.031Z,84.51
2022-08-09T03:42:51.658Z,84.61
2022-08-09T03:43:40.597Z,84.72
2022-08-09T03:44:31.954Z,84.82
2022-08-09T03:46:05.234Z,84.72
2022-08-09T03:46:20.666Z,84.41
2022-08-09T03:47:01.589Z,84.34
2022-08-09T03:47:50.579Z,84.34
2022-08-09T03:48:42.939Z,84.45
2022-08-09T03:49:35.580Z,84.45
2022-08-09T03:50:27.980Z,84.75
2022-08-09T03:51:55.184Z,85.06
2022-08-09T03:52:03.640Z,85.06
2022-08-09T03:52:50.517Z,85.27
2022-08-09T03:53:40.489Z,85.27
2022-08-09T03:54:31.391Z,84.55
2022-08-09T03:55:20.468Z,84.55
2022-08-09T03:56:10.477Z,84.66
2022-08-09T03:57:00.477Z,84.86
2022-08-09T03:58:03.367Z,84.55
2022-08-09T03:58:41.437Z,84.96
2022-08-09T03:59:43.111Z,84.96
2022-08-09T04:00:21.428Z,84.96
2022-08-09T04:01:10.496Z,84.96
2022-08-09T04:02:00.401Z,85.06
2022-08-09T04:02:52.752Z,85.51
2022-08-09T04:04:01.508Z,85.71
2022-08-09T04:04:36.072Z,86.02
2022-08-09T04:05:27.620Z,86.22
2022-08-09T04:06:11.857Z,86.43
2022-08-09T04:07:00.336Z,86.63
2022-08-09T04:07:56.946Z,86.53
2022-08-09T04:08:41.343Z,86.12
2022-08-09T04:09:47.824Z,86.02
2022-08-09T04:10:21.305Z,86.22
2022-08-09T04:11:11.329Z,86.53
2022-08-09T04:12:00.277Z,86.63
2022-08-09T04:12:50.956Z,86.53
2022-08-09T04:14:37.024Z,86.22
2022-08-09T04:14:53.710Z,85.82
2022-08-09T04:15:38.768Z,85.82
2022-08-09T04:16:19.491Z,85.71
2022-08-09T04:17:01.245Z,85.61
2022-08-09T04:17:50.235Z,85.71
2022-08-09T04:18:40.206Z,85.92
2022-08-09T04:19:50.882Z,86.33
2022-08-09T04:20:21.204Z,86.02
2022-08-09T04:21:10.184Z,86.22
2022-08-09T04:22:00.185Z,85.71
2022-08-09T04:22:50.490Z,85.41
2022-08-09T04:23:40.164Z,85.61
2022-08-09T04:24:31.164Z,86.02
2022-08-09T04:25:20.150Z,85.61
2022-08-09T04:26:10.144Z,85.71
2022-08-09T04:27:00.124Z,85.71
2022-08-09T04:27:50.114Z,85.82
2022-08-09T04:28:42.391Z,86.02
2022-08-09T04:29:31.094Z,85.61
2022-08-09T04:30:20.879Z,85.41
2022-08-09T04:31:10.304Z,85.30
2022-08-09T04:32:00.076Z,85.82
2022-08-09T04:32:50.091Z,86.02
2022-08-09T04:33:52.308Z,85.92
2022-08-09T04:34:32.020Z,85.71
2022-08-09T04:35:21.873Z,85.71
2022-08-09T04:36:10.021Z,85.61
2022-08-09T04:37:00.022Z,85.61
2022-08-09T04:37:50.034Z,85.92
2022-08-09T04:38:39.991Z,86.02
2022-08-09T04:39:31.252Z,86.12
2022-08-09T04:40:35.925Z,86.12
2022-08-09T04:41:11.949Z,86.02
2022-08-09T04:42:02.815Z,85.82
2022-08-09T04:42:49.951Z,85.92
2022-08-09T04:43:51.057Z,86.22
2022-08-09T04:44:30.922Z,86.22
2022-08-09T04:45:20.569Z,86.12
2022-08-09T04:46:09.919Z,85.92
2022-08-09T04:47:04.217Z,86.02
2022-08-09T04:47:58.564Z,85.92
2022-08-09T04:48:40.881Z,86.12
2022-08-09T04:49:53.736Z,86.12
2022-08-09T04:50:20.852Z,86.43
2022-08-09T04:51:10.861Z,85.82
2022-08-09T04:51:59.861Z,85.82
2022-08-09T04:52:49.840Z,85.82
2022-08-09T04:53:39.819Z,85.82
2022-08-09T04:54:29.821Z,86.33
2022-08-09T04:55:19.817Z,86.22
2022-08-09T04:56:09.792Z,86.33
2022-08-09T04:56:59.782Z,86.33
2022-08-09T04:57:59.150Z,86.43
2022-08-09T04:58:40.781Z,86.33
2022-08-09T04:59:30.014Z,86.12
2022-08-09T05:00:19.739Z,86.33
2022-08-09T05:01:16.473Z,86.33
2022-08-09T05:02:02.897Z,86.43
2022-08-09T05:02:52.956Z,86.73
2022-08-09T05:03:43.316Z,86.63
2022-08-09T05:04:31.267Z,86.43
2022-08-09T05:05:32.063Z,86.12
2022-08-09T05:06:10.691Z,86.22
2022-08-09T05:06:59.680Z,86.33
2022-08-09T05:07:49.666Z,86.22
2022-08-09T05:08:39.660Z,86.63
2022-08-09T05:09:42.079Z,87.24
2022-08-09T05:10:20.639Z,87.14
2022-08-09T05:11:09.639Z,87.24
2022-08-09T05:11:59.637Z,87.24
2022-08-09T05:12:49.648Z,87.04
2022-08-09T05:13:39.590Z,86.83
2022-08-09T05:14:29.609Z,86.63
2022-08-09T05:15:24.722Z,86.33
2022-08-09T05:16:10.578Z,86.43
2022-08-09T05:16:59.786Z,86.53
2022-08-09T05:18:37.907Z,86.53
2022-08-09T05:18:57.381Z,86.73
2022-08-09T05:19:38.395Z,86.94
2022-08-09T05:20:20.538Z,86.63
2022-08-09T05:21:23.234Z,86.33
2022-08-09T05:22:00.538Z,86.53
2022-08-09T05:23:54.028Z,86.43
2022-08-09T05:23:54.697Z,86.33
2022-08-09T05:24:30.492Z,86.29
2022-08-09T05:25:19.489Z,86.49
2022-08-09T05:26:09.488Z,86.59
2022-08-09T05:27:00.486Z,86.80
2022-08-09T05:27:49.449Z,86.80
2022-08-09T05:28:39.446Z,86.90
2022-08-09T05:29:31.642Z,86.90
2022-08-09T05:30:20.409Z,86.80
2022-08-09T05:31:10.068Z,86.39
2022-08-09T05:31:59.459Z,86.80
2022-08-09T05:32:50.758Z,86.90
2022-08-09T05:33:42.389Z,86.59
2022-08-09T05:34:30.661Z,86.90
2022-08-09T05:35:21.796Z,86.69
2022-08-09T05:36:09.348Z,87.30
2022-08-09T05:37:01.754Z,87.10
2022-08-09T05:37:50.107Z,86.69
2022-08-09T05:38:39.415Z,86.49
2022-08-09T05:39:36.507Z,86.08
2022-08-09T05:40:20.366Z,86.18
2022-08-09T05:41:12.771Z,86.59
2022-08-09T05:42:01.482Z,86.49
2022-08-09T05:42:49.283Z,86.90
2022-08-09T05:43:39.310Z,86.80
2022-08-09T05:44:32.889Z,86.45
2022-08-09T05:45:19.256Z,86.55
2022-08-09T05:46:10.255Z,86.04
2022-08-09T05:46:59.255Z,85.84
2022-08-09T05:47:52.242Z,86.45
2022-08-09T05:48:39.209Z,86.24
2022-08-09T05:49:51.640Z,85.84
2022-08-09T05:50:31.908Z,85.84
2022-08-09T05:51:30.054Z,85.63
2022-08-09T05:52:00.184Z,85.74
2022-08-09T05:52:53.810Z,85.33
2022-08-09T05:53:56.846Z,85.33
2022-08-09T05:54:30.145Z,85.94
2022-08-09T05:55:21.163Z,85.74
2022-08-09T05:56:09.136Z,86.04
2022-08-09T05:57:00.136Z,86.04
2022-08-09T05:57:51.383Z,85.74
2022-08-09T05:58:40.114Z,86.15
2022-08-09T05:59:29.114Z,86.35
2022-08-09T06:00:19.075Z,86.24
2022-08-09T06:01:09.084Z,86.04
2022-08-09T06:02:00.086Z,85.74
2022-08-09T06:02:49.192Z,85.33
2022-08-09T06:03:43.995Z,85.49
2022-08-09T06:04:34.545Z,85.60
2022-08-09T06:05:20.033Z,85.80
2022-08-09T06:06:10.034Z,86.51
2022-08-09T06:06:59.003Z,86.00
2022-08-09T06:08:05.540Z,85.39
2022-08-09T06:08:40.013Z,84.88
2022-08-09T06:09:54.856Z,84.78
2022-08-09T06:10:19.975Z,85.60
2022-08-09T06:11:17.619Z,85.69
2022-08-09T06:11:59.962Z,85.19
2022-08-09T06:12:50.429Z,84.88
2022-08-09T06:13:39.941Z,84.98
2022-08-09T06:14:28.923Z,84.94
2022-08-09T06:15:18.913Z,84.74
2022-08-09T06:16:08.914Z,84.74
2022-08-09T06:16:58.903Z,84.53
2022-08-09T06:17:49.891Z,84.84
2022-08-09T06:18:38.893Z,85.45
2022-08-09T06:19:28.894Z,85.55
2022-08-09T06:20:18.853Z,85.05
2022-08-09T06:21:08.851Z,85.11
2022-08-09T06:21:59.155Z,85.21
2022-08-09T06:22:48.842Z,85.11
2022-08-09T06:23:55.815Z,85.11
2022-08-09T06:24:29.842Z,84.90
2022-08-09T06:25:18.832Z,85.31
2022-08-09T06:26:08.794Z,84.70
2022-08-09T06:26:58.823Z,83.89
2022-08-09T06:27:51.393Z,83.68
2022-08-09T06:28:38.773Z,84.15
2022-08-09T06:29:28.760Z,83.84
2022-08-09T06:30:18.750Z,83.23
2022-08-09T06:31:08.752Z,84.15
2022-08-09T06:32:08.537Z,83.84
2022-08-09T06:32:53.082Z,83.44
2022-08-09T06:33:42.153Z,83.34
2022-08-09T06:34:30.654Z,83.54
2022-08-09T06:35:18.702Z,83.40
2022-08-09T06:36:08.686Z,83.70
2022-08-09T06:36:59.597Z,83.50
2022-08-09T06:37:52.761Z,83.29
2022-08-09T06:38:39.668Z,82.99
2022-08-09T06:39:48.853Z,82.68
2022-08-09T06:40:23.848Z,82.38
2022-08-09T06:41:18.852Z,81.87
2022-08-09T06:42:08.742Z,81.84
2022-08-09T06:42:49.639Z,81.63
2022-08-09T06:43:38.621Z,81.33
2022-08-09T06:44:28.613Z,81.23
2022-08-09T06:46:07.908Z,80.92
2022-08-09T06:46:10.878Z,80.88
2022-08-09T06:46:58.577Z,80.98
2022-08-09T06:47:48.550Z,80.58
2022-08-09T06:48:43.150Z,80.58
2022-08-09T06:49:44.752Z,80.47
2022-08-09T06:50:19.547Z,80.24
2022-08-09T06:51:08.738Z,79.93
2022-08-09T06:51:58.523Z,79.83
2022-08-09T06:52:49.039Z,80.03
2022-08-09T06:53:38.849Z,79.42
2022-08-09T06:54:28.478Z,79.38
2022-08-09T06:55:18.489Z,79.08
2022-08-09T06:56:09.318Z,78.78
2022-08-09T06:56:58.460Z,78.57
2022-08-09T06:58:03.429Z,78.47
2022-08-09T07:00:46.607Z,78.64
2022-08-09T07:00:50.664Z,78.23
2022-08-09T07:00:54.358Z,78.33
2022-08-09T07:01:09.400Z,77.79
2022-08-09T07:02:03.456Z,77.59
2022-08-09T07:02:49.513Z,77.28
2022-08-09T07:03:39.322Z,77.14
2022-08-09T07:04:28.390Z,76.70
2022-08-09T07:05:18.359Z,75.79
2022-08-09T07:06:08.353Z,75.15
2022-08-09T07:06:59.927Z,74.71
2022-08-09T07:08:00.524Z,74.47
2022-08-09T07:08:39.620Z,73.86
2022-08-09T07:09:56.534Z,73.22
2022-08-09T07:10:29.630Z,73.19
2022-08-09T07:11:12.569Z,72.44
2022-08-09T07:11:58.304Z,72.24
2022-08-09T07:12:57.068Z,70.89
2022-08-09T07:13:45.315Z,70.89
2022-08-09T07:14:29.258Z,70.56
2022-08-09T07:16:38.752Z,70.26
2022-08-09T07:16:41.165Z,71.06
2022-08-09T07:16:59.248Z,70.86
2022-08-09T07:17:56.301Z,71.17
2022-08-09T07:18:39.231Z,70.96
2022-08-09T07:19:28.189Z,71.06
2022-08-09T07:20:18.200Z,71.06
2022-08-09T07:21:08.392Z,71.17
2022-08-09T07:21:59.827Z,71.67
2022-08-09T07:22:53.487Z,71.26
2022-08-09T07:23:46.706Z,71.57
2022-08-09T07:24:32.172Z,71.94
2022-08-09T07:25:19.127Z,71.73
2022-08-09T07:26:08.117Z,72.44
2022-08-09T07:26:58.128Z,71.94
2022-08-09T07:27:53.228Z,71.73
2022-08-09T07:28:39.087Z,72.00
2022-08-09T07:29:37.753Z,71.70
2022-08-09T07:30:19.086Z,70.76
2022-08-09T07:31:08.080Z,70.22
2022-08-09T07:31:58.082Z,70.12
2022-08-09T07:32:48.038Z,69.69
2022-08-09T07:33:52.586Z,69.05
2022-08-09T07:34:29.017Z,68.62
2022-08-09T07:35:18.031Z,69.02
2022-08-09T07:36:08.000Z,68.08
2022-08-09T07:36:57.997Z,67.55
2022-08-09T07:37:49.356Z,66.24
2022-08-09T07:38:38.005Z,65.80
2022-08-09T07:39:40.213Z,65.57
2022-08-09T07:40:20.498Z,65.47
2022-08-09T07:41:12.079Z,65.04
2022-08-09T07:41:57.976Z,64.94
2022-08-09T07:42:47.939Z,64.21
2022-08-09T07:43:40.993Z,63.67
2022-08-09T07:44:33.100Z,63.07
2022-08-09T07:45:33.272Z,62.14
2022-08-09T07:46:08.906Z,62.24
2022-08-09T07:46:57.897Z,61.01
2022-08-09T07:48:00.575Z,60.48
2022-08-09T07:48:39.128Z,60.48
2022-08-09T07:49:27.866Z,60.38
2022-08-09T07:50:17.865Z,59.25
2022-08-09T07:52:02.701Z,60.05
2022-08-09T07:52:04.545Z,59.92
2022-08-09T07:52:48.837Z,59.32
2022-08-09T07:54:05.118Z,59.62
2022-08-09T07:54:30.232Z,59.42
2022-08-09T07:55:17.815Z,58.42
2022-08-09T07:56:07.818Z,58.09
2022-08-09T07:56:58.841Z,58.09
2022-08-09T07:57:47.776Z,57.46
2022-08-09T07:58:37.770Z,58.26
2022-08-09T07:59:45.931Z,56.37
2022-08-09T08:00:20.190Z,55.94
2022-08-09T08:01:11.109Z,56.14
2022-08-09T08:01:57.799Z,55.44
2022-08-09T08:02:48.028Z,55.74
2022-08-09T08:03:37.719Z,55.41
2022-08-09T08:04:31.501Z,55.11
2022-08-09T08:05:19.000Z,55.21
2022-08-09T08:06:07.675Z,55.11
2022-08-09T08:07:00.166Z,54.91
2022-08-09T08:08:44.626Z,55.32
2022-08-09T08:09:00.759Z,54.61
2022-08-09T08:09:35.553Z,55.41
2022-08-09T08:10:18.647Z,54.89
2022-08-09T08:12:09.740Z,54.69
2022-08-09T08:12:12.144Z,54.59
2022-08-09T08:12:48.635Z,54.49
2022-08-09T08:13:41.286Z,53.99
2022-08-09T08:14:28.584Z,53.09
2022-08-09T08:15:17.673Z,53.79
2022-08-09T08:16:07.578Z,53.56
2022-08-09T08:17:07.602Z,53.96
2022-08-09T08:17:54.636Z,53.96
2022-08-09T08:18:38.537Z,53.86
2022-08-09T08:19:31.114Z,53.96
2022-08-09T08:20:17.524Z,53.06
2022-08-09T08:21:07.518Z,53.34
2022-08-09T08:21:57.528Z,53.44
2022-08-09T08:22:48.482Z,53.64
2022-08-09T08:23:37.497Z,52.94
2022-08-09T08:24:40.255Z,52.94
2022-08-09T08:25:19.423Z,52.84
2022-08-09T08:26:11.387Z,52.74
2022-08-09T08:26:57.448Z,52.14
2022-08-09T08:27:49.953Z,51.72
2022-08-09T08:28:37.437Z,52.42
2022-08-09T08:29:28.634Z,52.02
2022-08-09T08:30:18.408Z,52.72
2022-08-09T08:31:14.383Z,51.72
2022-08-09T08:32:04.517Z,51.92
2022-08-09T08:32:53.595Z,51.29
2022-08-09T08:33:53.114Z,51.62
2022-08-09T08:34:28.358Z,51.12
2022-08-09T08:35:18.112Z,51.52
2022-08-09T08:36:07.359Z,51.00
2022-08-09T08:36:57.355Z,51.59
2022-08-09T08:37:59.966Z,51.79
2022-08-09T08:38:38.318Z,50.70
2022-08-09T08:39:27.375Z,50.60
2022-08-09T08:40:17.307Z,50.50
2022-08-09T08:41:07.307Z,49.80
2022-08-09T08:41:58.712Z,49.90
2022-08-09T08:42:47.601Z,49.90
2022-08-09T08:43:37.278Z,50.40
2022-08-09T08:44:29.218Z,50.60
2022-08-09T08:45:17.238Z,49.90
2022-08-09T08:46:24.889Z,49.80
2022-08-09T08:47:02.220Z,50.30
2022-08-09T08:47:48.229Z,50.90
2022-08-09T08:48:37.211Z,50.18
2022-08-09T08:49:38.570Z,49.88
2022-08-09T08:50:18.724Z,49.78
2022-08-09T08:51:07.189Z,49.28
2022-08-09T08:52:01.909Z,49.48
2022-08-09T08:52:57.683Z,49.36
2022-08-09T08:53:38.159Z,49.18
2022-08-09T08:54:30.129Z,48.66
2022-08-09T08:55:19.067Z,48.96
2022-08-09T08:56:08.130Z,49.55
2022-08-09T08:56:58.129Z,48.96
2022-08-09T08:57:57.141Z,48.76
2022-08-09T08:58:38.098Z,48.96
2022-08-09T08:59:28.168Z,48.56
2022-08-09T09:00:28.002Z,48.34
2022-08-09T09:01:09.088Z,48.54
2022-08-09T09:01:59.809Z,48.14
2022-08-09T09:02:52.231Z,47.74
2022-08-09T09:03:38.314Z,47.54
2022-08-09T09:04:27.609Z,46.92
2022-08-09T09:05:17.020Z,47.32
2022-08-09T09:06:09.667Z,47.22
2022-08-09T09:06:57.020Z,47.42
2022-08-09T09:07:47.020Z,47.32
2022-08-09T09:08:40.359Z,48.22
2022-08-09T09:09:57.931Z,47.22
2022-08-09T09:10:17.979Z,47.52
2022-08-09T09:11:06.958Z,46.53
2022-08-09T09:11:58.120Z,46.92
2022-08-09T09:12:46.939Z,47.02
2022-08-09T09:13:55.214Z,47.02
2022-08-09T09:14:27.930Z,47.22
2022-08-09T09:15:28.064Z,46.62
2022-08-09T09:16:08.031Z,46.83
2022-08-09T09:16:56.900Z,46.11
2022-08-09T09:17:48.995Z,46.11
2022-08-09T09:18:37.898Z,46.01
2022-08-09T09:19:40.807Z,45.31
2022-08-09T09:20:17.850Z,45.01
2022-08-09T09:21:06.840Z,45.51
2022-08-09T09:21:58.110Z,46.50
2022-08-09T09:22:46.839Z,44.92
2022-08-09T09:23:37.972Z,45.41
2022-08-09T09:24:26.828Z,44.79
2022-08-09T09:26:02.221Z,44.52
2022-08-09T09:26:12.431Z,44.99
2022-08-09T09:26:57.791Z,44.59
2022-08-09T09:28:05.245Z,44.99
2022-08-09T09:29:02.405Z,43.60
2022-08-09T09:29:36.765Z,42.88
2022-08-09T09:30:38.171Z,43.08
2022-08-09T09:31:07.729Z,43.08
2022-08-09T09:32:06.203Z,42.79
2022-08-09T09:32:47.710Z,43.28
2022-08-09T09:33:44.925Z,43.68
2022-08-09T09:34:29.039Z,42.69
2022-08-09T09:35:17.860Z,42.99
2022-08-09T09:36:19.923Z,42.99
2022-08-09T09:36:57.662Z,42.79
2022-08-09T09:37:46.651Z,42.88
2022-08-09T09:38:37.202Z,43.08
2022-08-09T09:39:54.998Z,42.58
2022-08-09T09:40:17.990Z,42.29
2022-08-09T09:41:06.629Z,42.66
2022-08-09T09:41:56.626Z,42.49
2022-08-09T09:42:46.630Z,42.69
2022-08-09T09:43:41.366Z,42.49
2022-08-09T09:44:31.509Z,42.77
2022-08-09T09:45:26.554Z,42.07
2022-08-09T09:46:57.635Z,42.47
2022-08-09T09:47:48.089Z,42.27
2022-08-09T09:48:37.541Z,42.66
2022-08-09T09:49:56.275Z,43.06
2022-08-09T09:50:17.736Z,42.86
2022-08-09T09:51:07.522Z,42.96
2022-08-09T09:51:57.525Z,43.85
2022-08-09T09:52:53.901Z,43.14
2022-08-09T09:53:57.245Z,42.94
2022-08-09T09:54:27.462Z,42.35
2022-08-09T09:55:31.204Z,42.45
2022-08-09T09:56:07.472Z,42.15
2022-08-09T09:58:02.227Z,42.65
2022-08-09T09:58:02.688Z,42.15
2022-08-09T09:58:37.459Z,42.33
2022-08-09T09:59:35.159Z,41.24
2022-08-09T10:00:17.411Z,41.44
2022-08-09T10:01:06.411Z,41.24
2022-08-09T10:01:57.412Z,41.33
2022-08-09T10:02:46.393Z,41.24
2022-08-09T10:03:36.425Z,40.82
2022-08-09T10:04:30.993Z,41.12
2022-08-09T10:05:27.136Z,40.52
2022-08-09T10:06:07.360Z,39.85
2022-08-09T10:06:56.332Z,39.36
2022-08-09T10:08:11.082Z,39.85
2022-08-09T10:08:54.130Z,39.85
2022-08-09T10:09:27.322Z,40.25
2022-08-09T10:10:18.574Z,40.05
2022-08-09T10:11:53.709Z,40.44
2022-08-09T10:12:11.435Z,40.84
2022-08-09T10:12:52.010Z,40.15
2022-08-09T10:13:43.088Z,40.66
2022-08-09T10:14:33.164Z,40.66
2022-08-09T10:15:51.099Z,41.06
2022-08-09T10:16:54.742Z,40.44
2022-08-09T10:17:05.259Z,40.44
2022-08-09T10:17:56.319Z,40.94
2022-08-09T10:18:37.213Z,41.24
2022-08-09T10:19:26.194Z,40.94
2022-08-09T10:20:16.229Z,41.24
2022-08-09T10:21:07.173Z,41.24
2022-08-09T10:21:56.164Z,41.04
2022-08-09T10:22:46.183Z,41.24
2022-08-09T10:23:36.150Z,40.42
2022-08-09T10:24:35.637Z,41.02
2022-08-09T10:25:20.809Z,40.92
2022-08-09T10:26:10.819Z,40.82
2022-08-09T10:26:57.126Z,41.60
2022-08-09T10:27:56.752Z,39.81
2022-08-09T10:28:37.397Z,39.61
2022-08-09T10:30:01.684Z,39.40
2022-08-09T10:32:35.782Z,39.20
2022-08-09T10:32:47.044Z,39.99
2022-08-09T10:34:08.509Z,39.00
2022-08-09T10:34:33.629Z,39.99
2022-08-09T10:35:17.022Z,39.40
2022-08-09T10:36:11.513Z,40.68
2022-08-09T10:36:57.003Z,39.29
2022-08-09T10:37:46.534Z,39.59
2022-08-09T10:38:57.017Z,39.40
2022-08-09T10:39:28.713Z,38.90
2022-08-09T10:40:35.004Z,39.87
2022-08-09T10:41:06.966Z,39.28
2022-08-09T10:41:55.983Z,39.97
2022-08-09T10:42:46.001Z,39.67
2022-08-09T10:43:47.161Z,39.08
2022-08-09T10:44:26.924Z,39.18
2022-08-09T10:45:16.911Z,39.40
2022-08-09T10:46:05.924Z,39.29